sensor_id;sensor_type;location;lat;lon;timestamp;P1;durP1;ratioP1;P2;durP2;ratioP2
30519;SDS011;17300;50.374;8.006;2023-02-28T00:00:45;1.63;;;1.20;;
30519;SDS011;17300;50.374;8.006;2023-02-28T00:03:11;2.00;;;1.33;;
30519;SDS011;17300;50.374;8.006;2023-02-28T00:05:38;1.20;;;1.10;;
30519;SDS011;17300;50.374;8.006;2023-02-28T00:08:06;1.40;;;1.10;;
30519;SDS011;17300;50.374;8.006;2023-02-28T00:10:33;1.33;;;1.10;;
30519;SDS011;17300;50.374;8.006;2023-02-28T00:13:03;1.20;;;1.10;;
30519;SDS011;17300;50.374;8.006;2023-02-28T00:15:31;1.10;;;1.00;;
30519;SDS011;17300;50.374;8.006;2023-02-28T00:17:58;1.53;;;1.33;;
30519;SDS011;17300;50.374;8.006;2023-02-28T00:20:24;1.47;;;1.20;;
30519;SDS011;17300;50.374;8.006;2023-02-28T00:22:52;1.27;;;1.10;;
30519;SDS011;17300;50.374;8.006;2023-02-28T00:25:20;1.57;;;1.23;;
30519;SDS011;17300;50.374;8.006;2023-02-28T00:27:47;1.67;;;1.27;;
30519;SDS011;17300;50.374;8.006;2023-02-28T00:30:16;1.30;;;1.20;;
30519;SDS011;17300;50.374;8.006;2023-02-28T00:32:44;1.60;;;1.30;;
30519;SDS011;17300;50.374;8.006;2023-02-28T00:35:11;2.27;;;1.40;;
30519;SDS011;17300;50.374;8.006;2023-02-28T00:37:38;2.10;;;1.40;;
30519;SDS011;17300;50.374;8.006;2023-02-28T00:40:05;1.90;;;1.40;;
30519;SDS011;17300;50.374;8.006;2023-02-28T00:42:33;1.63;;;1.40;;
30519;SDS011;17300;50.374;8.006;2023-02-28T00:45:00;1.60;;;1.50;;
30519;SDS011;17300;50.374;8.006;2023-02-28T00:47:30;2.00;;;1.53;;
30519;SDS011;17300;50.374;8.006;2023-02-28T00:49:58;1.43;;;1.30;;
30519;SDS011;17300;50.374;8.006;2023-02-28T00:52:24;1.70;;;1.60;;
30519;SDS011;17300;50.374;8.006;2023-02-28T00:54:51;1.50;;;1.40;;
30519;SDS011;17300;50.374;8.006;2023-02-28T00:57:18;2.67;;;1.50;;
30519;SDS011;17300;50.374;8.006;2023-02-28T00:59:44;1.87;;;1.50;;
30519;SDS011;17300;50.374;8.006;2023-02-28T01:02:11;1.90;;;1.43;;
30519;SDS011;17300;50.374;8.006;2023-02-28T01:04:39;2.30;;;1.40;;
30519;SDS011;17300;50.374;8.006;2023-02-28T01:07:06;1.93;;;1.33;;
30519;SDS011;17300;50.374;8.006;2023-02-28T01:09:32;1.90;;;1.60;;
30519;SDS011;17300;50.374;8.006;2023-02-28T01:11:59;1.57;;;1.47;;
30519;SDS011;17300;50.374;8.006;2023-02-28T01:14:26;1.90;;;1.47;;
30519;SDS011;17300;50.374;8.006;2023-02-28T01:16:52;1.83;;;1.70;;
30519;SDS011;17300;50.374;8.006;2023-02-28T01:19:19;2.47;;;1.70;;
30519;SDS011;17300;50.374;8.006;2023-02-28T01:21:47;1.87;;;1.43;;
30519;SDS011;17300;50.374;8.006;2023-02-28T01:24:14;2.17;;;1.50;;
30519;SDS011;17300;50.374;8.006;2023-02-28T01:26:40;1.70;;;1.57;;
30519;SDS011;17300;50.374;8.006;2023-02-28T01:29:07;2.00;;;1.73;;
30519;SDS011;17300;50.374;8.006;2023-02-28T01:31:34;2.10;;;1.47;;
30519;SDS011;17300;50.374;8.006;2023-02-28T01:34:00;1.80;;;1.50;;
30519;SDS011;17300;50.374;8.006;2023-02-28T01:36:27;2.37;;;1.70;;
30519;SDS011;17300;50.374;8.006;2023-02-28T01:38:56;1.70;;;1.60;;
30519;SDS011;17300;50.374;8.006;2023-02-28T01:41:23;1.77;;;1.50;;
30519;SDS011;17300;50.374;8.006;2023-02-28T01:43:53;1.97;;;1.47;;
30519;SDS011;17300;50.374;8.006;2023-02-28T01:46:29;2.00;;;1.70;;
30519;SDS011;17300;50.374;8.006;2023-02-28T01:48:58;1.60;;;1.50;;
30519;SDS011;17300;50.374;8.006;2023-02-28T01:51:32;2.60;;;1.60;;
30519;SDS011;17300;50.374;8.006;2023-02-28T01:54:05;1.93;;;1.63;;
30519;SDS011;17300;50.374;8.006;2023-02-28T01:56:38;1.87;;;1.70;;
30519;SDS011;17300;50.374;8.006;2023-02-28T01:59:09;3.33;;;1.70;;
30519;SDS011;17300;50.374;8.006;2023-02-28T02:01:38;2.50;;;1.87;;
30519;SDS011;17300;50.374;8.006;2023-02-28T02:04:05;2.10;;;1.90;;
30519;SDS011;17300;50.374;8.006;2023-02-28T02:06:34;4.77;;;1.53;;
30519;SDS011;17300;50.374;8.006;2023-02-28T02:09:04;1.97;;;1.60;;
30519;SDS011;17300;50.374;8.006;2023-02-28T02:11:31;2.17;;;1.83;;
30519;SDS011;17300;50.374;8.006;2023-02-28T02:14:23;1.67;;;1.57;;
30519;SDS011;17300;50.374;8.006;2023-02-28T02:17:03;1.50;;;1.40;;
30519;SDS011;17300;50.374;8.006;2023-02-28T02:19:44;1.90;;;1.70;;
30519;SDS011;17300;50.374;8.006;2023-02-28T02:25:34;2.00;;;1.53;;
30519;SDS011;17300;50.374;8.006;2023-02-28T02:28:17;1.83;;;1.60;;
30519;SDS011;17300;50.374;8.006;2023-02-28T02:31:06;1.83;;;1.67;;
30519;SDS011;17300;50.374;8.006;2023-02-28T02:34:10;2.10;;;1.70;;
30519;SDS011;17300;50.374;8.006;2023-02-28T02:36:53;1.90;;;1.67;;
30519;SDS011;17300;50.374;8.006;2023-02-28T02:39:29;2.80;;;1.60;;
30519;SDS011;17300;50.374;8.006;2023-02-28T02:42:03;2.67;;;1.70;;
30519;SDS011;17300;50.374;8.006;2023-02-28T02:44:37;1.70;;;1.50;;
30519;SDS011;17300;50.374;8.006;2023-02-28T02:47:10;1.93;;;1.60;;
30519;SDS011;17300;50.374;8.006;2023-02-28T02:49:43;2.57;;;1.37;;
30519;SDS011;17300;50.374;8.006;2023-02-28T02:52:15;2.23;;;1.60;;
30519;SDS011;17300;50.374;8.006;2023-02-28T02:54:45;1.47;;;1.30;;
30519;SDS011;17300;50.374;8.006;2023-02-28T02:57:15;1.50;;;1.40;;
30519;SDS011;17300;50.374;8.006;2023-02-28T02:59:47;1.50;;;1.40;;
30519;SDS011;17300;50.374;8.006;2023-02-28T03:02:16;1.77;;;1.50;;
30519;SDS011;17300;50.374;8.006;2023-02-28T03:04:45;1.60;;;1.50;;
30519;SDS011;17300;50.374;8.006;2023-02-28T03:07:16;1.80;;;1.50;;
30519;SDS011;17300;50.374;8.006;2023-02-28T03:09:49;1.77;;;1.67;;
30519;SDS011;17300;50.374;8.006;2023-02-28T03:12:18;1.73;;;1.50;;
30519;SDS011;17300;50.374;8.006;2023-02-28T03:14:48;3.63;;;1.43;;
30519;SDS011;17300;50.374;8.006;2023-02-28T03:20:35;1.80;;;1.47;;
30519;SDS011;17300;50.374;8.006;2023-02-28T03:23:09;1.63;;;1.50;;
30519;SDS011;17300;50.374;8.006;2023-02-28T03:25:44;1.93;;;1.40;;
30519;SDS011;17300;50.374;8.006;2023-02-28T03:28:19;2.23;;;1.70;;
30519;SDS011;17300;50.374;8.006;2023-02-28T03:30:55;1.70;;;1.60;;
30519;SDS011;17300;50.374;8.006;2023-02-28T03:33:27;2.03;;;1.63;;
30519;SDS011;17300;50.374;8.006;2023-02-28T03:35:59;1.70;;;1.53;;
30519;SDS011;17300;50.374;8.006;2023-02-28T03:38:31;1.60;;;1.50;;
30519;SDS011;17300;50.374;8.006;2023-02-28T03:41:02;2.10;;;1.50;;
30519;SDS011;17300;50.374;8.006;2023-02-28T03:43:33;1.50;;;1.40;;
30519;SDS011;17300;50.374;8.006;2023-02-28T03:46:05;2.73;;;1.60;;
30519;SDS011;17300;50.374;8.006;2023-02-28T03:48:37;1.63;;;1.53;;
30519;SDS011;17300;50.374;8.006;2023-02-28T03:51:09;1.43;;;1.33;;
30519;SDS011;17300;50.374;8.006;2023-02-28T03:53:39;2.20;;;1.57;;
30519;SDS011;17300;50.374;8.006;2023-02-28T03:56:11;2.97;;;1.70;;
30519;SDS011;17300;50.374;8.006;2023-02-28T03:58:43;1.40;;;1.30;;
30519;SDS011;17300;50.374;8.006;2023-02-28T04:01:15;1.50;;;1.40;;
30519;SDS011;17300;50.374;8.006;2023-02-28T04:03:46;1.53;;;1.40;;
30519;SDS011;17300;50.374;8.006;2023-02-28T04:06:15;1.63;;;1.50;;
30519;SDS011;17300;50.374;8.006;2023-02-28T04:08:44;1.60;;;1.30;;
30519;SDS011;17300;50.374;8.006;2023-02-28T04:11:14;1.80;;;1.50;;
30519;SDS011;17300;50.374;8.006;2023-02-28T04:13:45;1.70;;;1.60;;
30519;SDS011;17300;50.374;8.006;2023-02-28T04:16:13;1.53;;;1.43;;
30519;SDS011;17300;50.374;8.006;2023-02-28T04:18:40;1.80;;;1.50;;
30519;SDS011;17300;50.374;8.006;2023-02-28T04:21:08;1.77;;;1.53;;
30519;SDS011;17300;50.374;8.006;2023-02-28T04:23:36;1.50;;;1.40;;
30519;SDS011;17300;50.374;8.006;2023-02-28T04:26:03;1.87;;;1.47;;
30519;SDS011;17300;50.374;8.006;2023-02-28T04:28:30;1.40;;;1.30;;
30519;SDS011;17300;50.374;8.006;2023-02-28T04:30:57;1.50;;;1.37;;
30519;SDS011;17300;50.374;8.006;2023-02-28T04:33:25;1.70;;;1.40;;
30519;SDS011;17300;50.374;8.006;2023-02-28T04:35:57;2.20;;;1.80;;
30519;SDS011;17300;50.374;8.006;2023-02-28T04:38:25;1.53;;;1.43;;
30519;SDS011;17300;50.374;8.006;2023-02-28T04:40:53;1.67;;;1.53;;
30519;SDS011;17300;50.374;8.006;2023-02-28T04:43:23;1.87;;;1.70;;
30519;SDS011;17300;50.374;8.006;2023-02-28T04:45:49;1.63;;;1.53;;
30519;SDS011;17300;50.374;8.006;2023-02-28T04:48:16;1.60;;;1.50;;
30519;SDS011;17300;50.374;8.006;2023-02-28T04:50:43;1.90;;;1.67;;
30519;SDS011;17300;50.374;8.006;2023-02-28T04:53:09;1.90;;;1.70;;
30519;SDS011;17300;50.374;8.006;2023-02-28T04:55:36;1.87;;;1.70;;
30519;SDS011;17300;50.374;8.006;2023-02-28T04:58:06;1.93;;;1.73;;
30519;SDS011;17300;50.374;8.006;2023-02-28T05:00:33;2.67;;;1.80;;
30519;SDS011;17300;50.374;8.006;2023-02-28T05:02:59;1.97;;;1.77;;
30519;SDS011;17300;50.374;8.006;2023-02-28T05:05:26;2.13;;;1.93;;
30519;SDS011;17300;50.374;8.006;2023-02-28T05:07:53;2.20;;;1.93;;
30519;SDS011;17300;50.374;8.006;2023-02-28T05:10:20;2.03;;;1.80;;
30519;SDS011;17300;50.374;8.006;2023-02-28T05:12:47;2.10;;;1.90;;
30519;SDS011;17300;50.374;8.006;2023-02-28T05:15:17;2.20;;;2.00;;
30519;SDS011;17300;50.374;8.006;2023-02-28T05:17:44;2.07;;;1.77;;
30519;SDS011;17300;50.374;8.006;2023-02-28T05:20:11;2.27;;;1.90;;
30519;SDS011;17300;50.374;8.006;2023-02-28T05:22:39;2.10;;;1.90;;
30519;SDS011;17300;50.374;8.006;2023-02-28T05:25:08;3.20;;;1.93;;
30519;SDS011;17300;50.374;8.006;2023-02-28T05:27:37;2.20;;;1.90;;
30519;SDS011;17300;50.374;8.006;2023-02-28T05:30:04;2.03;;;1.83;;
30519;SDS011;17300;50.374;8.006;2023-02-28T05:32:33;2.13;;;1.93;;
30519;SDS011;17300;50.374;8.006;2023-02-28T05:35:00;2.37;;;1.97;;
30519;SDS011;17300;50.374;8.006;2023-02-28T05:37:29;3.47;;;2.47;;
30519;SDS011;17300;50.374;8.006;2023-02-28T05:39:56;2.83;;;2.10;;
30519;SDS011;17300;50.374;8.006;2023-02-28T05:42:39;2.40;;;2.20;;
30519;SDS011;17300;50.374;8.006;2023-02-28T05:45:10;2.77;;;2.13;;
30519;SDS011;17300;50.374;8.006;2023-02-28T05:47:38;2.30;;;2.10;;
30519;SDS011;17300;50.374;8.006;2023-02-28T05:50:40;2.63;;;2.43;;
30519;SDS011;17300;50.374;8.006;2023-02-28T06:08:50;3.30;;;2.60;;
30519;SDS011;17300;50.374;8.006;2023-02-28T06:11:17;4.17;;;2.90;;
30519;SDS011;17300;50.374;8.006;2023-02-28T06:13:44;3.27;;;2.97;;
30519;SDS011;17300;50.374;8.006;2023-02-28T06:16:11;3.53;;;3.23;;
30519;SDS011;17300;50.374;8.006;2023-02-28T06:18:38;3.30;;;3.00;;
30519;SDS011;17300;50.374;8.006;2023-02-28T06:21:04;2.90;;;2.70;;
30519;SDS011;17300;50.374;8.006;2023-02-28T06:23:31;2.93;;;2.67;;
30519;SDS011;17300;50.374;8.006;2023-02-28T06:25:59;3.07;;;2.77;;
30519;SDS011;17300;50.374;8.006;2023-02-28T06:28:26;2.70;;;2.50;;
30519;SDS011;17300;50.374;8.006;2023-02-28T06:30:53;2.93;;;2.60;;
30519;SDS011;17300;50.374;8.006;2023-02-28T06:33:20;4.13;;;2.60;;
30519;SDS011;17300;50.374;8.006;2023-02-28T06:35:47;2.80;;;2.60;;
30519;SDS011;17300;50.374;8.006;2023-02-28T06:38:15;2.53;;;2.33;;
30519;SDS011;17300;50.374;8.006;2023-02-28T06:40:43;3.53;;;2.73;;
30519;SDS011;17300;50.374;8.006;2023-02-28T06:43:11;2.67;;;2.47;;
30519;SDS011;17300;50.374;8.006;2023-02-28T06:45:41;3.00;;;2.70;;
30519;SDS011;17300;50.374;8.006;2023-02-28T06:48:08;4.23;;;3.03;;
30519;SDS011;17300;50.374;8.006;2023-02-28T06:50:36;2.57;;;2.37;;
30519;SDS011;17300;50.374;8.006;2023-02-28T06:53:03;4.30;;;2.70;;
30519;SDS011;17300;50.374;8.006;2023-02-28T06:55:29;5.10;;;3.20;;
30519;SDS011;17300;50.374;8.006;2023-02-28T06:57:57;4.40;;;4.00;;
30519;SDS011;17300;50.374;8.006;2023-02-28T07:00:25;5.43;;;4.93;;
30519;SDS011;17300;50.374;8.006;2023-02-28T07:02:51;5.10;;;4.53;;
30519;SDS011;17300;50.374;8.006;2023-02-28T07:05:20;5.97;;;3.80;;
30519;SDS011;17300;50.374;8.006;2023-02-28T07:07:46;5.07;;;3.50;;
30519;SDS011;17300;50.374;8.006;2023-02-28T07:10:13;4.83;;;3.57;;
30519;SDS011;17300;50.374;8.006;2023-02-28T07:12:41;4.10;;;3.27;;
30519;SDS011;17300;50.374;8.006;2023-02-28T07:15:09;4.73;;;3.57;;
30519;SDS011;17300;50.374;8.006;2023-02-28T07:17:37;4.13;;;3.73;;
30519;SDS011;17300;50.374;8.006;2023-02-28T07:20:04;5.53;;;4.00;;
30519;SDS011;17300;50.374;8.006;2023-02-28T07:22:32;5.47;;;4.30;;
30519;SDS011;17300;50.374;8.006;2023-02-28T07:24:58;3.40;;;3.10;;
30519;SDS011;17300;50.374;8.006;2023-02-28T07:27:25;4.90;;;3.60;;
30519;SDS011;17300;50.374;8.006;2023-02-28T07:29:52;4.80;;;3.10;;
30519;SDS011;17300;50.374;8.006;2023-02-28T07:32:19;3.80;;;2.80;;
30519;SDS011;17300;50.374;8.006;2023-02-28T07:34:47;4.33;;;3.00;;
30519;SDS011;17300;50.374;8.006;2023-02-28T07:37:14;3.57;;;2.50;;
30519;SDS011;17300;50.374;8.006;2023-02-28T07:39:41;3.60;;;2.27;;
30519;SDS011;17300;50.374;8.006;2023-02-28T07:42:08;2.90;;;2.40;;
30519;SDS011;17300;50.374;8.006;2023-02-28T07:44:36;3.63;;;2.73;;
30519;SDS011;17300;50.374;8.006;2023-02-28T07:47:05;2.40;;;2.20;;
30519;SDS011;17300;50.374;8.006;2023-02-28T07:49:33;3.17;;;2.20;;
30519;SDS011;17300;50.374;8.006;2023-02-28T07:52:01;2.40;;;1.90;;
30519;SDS011;17300;50.374;8.006;2023-02-28T07:54:28;3.23;;;2.03;;
30519;SDS011;17300;50.374;8.006;2023-02-28T07:56:55;1.80;;;1.70;;
30519;SDS011;17300;50.374;8.006;2023-02-28T07:59:22;2.80;;;1.80;;
30519;SDS011;17300;50.374;8.006;2023-02-28T08:01:49;1.97;;;1.70;;
30519;SDS011;17300;50.374;8.006;2023-02-28T08:04:16;2.13;;;1.90;;
30519;SDS011;17300;50.374;8.006;2023-02-28T08:06:42;1.97;;;1.60;;
30519;SDS011;17300;50.374;8.006;2023-02-28T08:09:11;1.83;;;1.67;;
30519;SDS011;17300;50.374;8.006;2023-02-28T08:11:37;2.00;;;1.80;;
30519;SDS011;17300;50.374;8.006;2023-02-28T08:14:04;1.60;;;1.40;;
30519;SDS011;17300;50.374;8.006;2023-02-28T08:16:31;1.63;;;1.53;;
30519;SDS011;17300;50.374;8.006;2023-02-28T08:18:57;1.67;;;1.57;;
30519;SDS011;17300;50.374;8.006;2023-02-28T08:21:24;1.80;;;1.60;;
30519;SDS011;17300;50.374;8.006;2023-02-28T08:23:51;1.63;;;1.45;;
30519;SDS011;17300;50.374;8.006;2023-02-28T08:26:19;1.50;;;1.40;;
30519;SDS011;17300;50.374;8.006;2023-02-28T08:28:46;1.70;;;1.60;;
30519;SDS011;17300;50.374;8.006;2023-02-28T08:31:14;1.70;;;1.60;;
30519;SDS011;17300;50.374;8.006;2023-02-28T08:33:42;1.92;;;1.83;;
30519;SDS011;17300;50.374;8.006;2023-02-28T08:36:10;2.30;;;2.00;;
30519;SDS011;17300;50.374;8.006;2023-02-28T08:38:37;1.60;;;1.50;;
30519;SDS011;17300;50.374;8.006;2023-02-28T08:41:05;1.70;;;1.60;;
30519;SDS011;17300;50.374;8.006;2023-02-28T08:43:35;1.83;;;1.73;;
30519;SDS011;17300;50.374;8.006;2023-02-28T08:46:03;1.67;;;1.58;;
30519;SDS011;17300;50.374;8.006;2023-02-28T08:48:31;1.67;;;1.58;;
30519;SDS011;17300;50.374;8.006;2023-02-28T08:50:59;1.40;;;1.30;;
30519;SDS011;17300;50.374;8.006;2023-02-28T08:53:27;1.55;;;1.45;;
30519;SDS011;17300;50.374;8.006;2023-02-28T08:55:57;1.67;;;1.52;;
30519;SDS011;17300;50.374;8.006;2023-02-28T08:58:25;3.15;;;1.80;;
30519;SDS011;17300;50.374;8.006;2023-02-28T09:00:53;1.73;;;1.48;;
30519;SDS011;17300;50.374;8.006;2023-02-28T09:03:20;1.50;;;1.40;;
30519;SDS011;17300;50.374;8.006;2023-02-28T09:05:54;1.65;;;1.55;;
30519;SDS011;17300;50.374;8.006;2023-02-28T09:08:22;1.48;;;1.38;;
30519;SDS011;17300;50.374;8.006;2023-02-28T09:10:49;1.83;;;1.60;;
30519;SDS011;17300;50.374;8.006;2023-02-28T09:13:15;1.80;;;1.60;;
30519;SDS011;17300;50.374;8.006;2023-02-28T09:15:42;1.50;;;1.40;;
30519;SDS011;17300;50.374;8.006;2023-02-28T09:18:11;1.42;;;1.33;;
30519;SDS011;17300;50.374;8.006;2023-02-28T09:20:38;1.42;;;1.33;;
30519;SDS011;17300;50.374;8.006;2023-02-28T09:23:05;1.55;;;1.45;;
30519;SDS011;17300;50.374;8.006;2023-02-28T09:25:32;1.23;;;1.17;;
30519;SDS011;17300;50.374;8.006;2023-02-28T09:27:59;1.50;;;1.40;;
30519;SDS011;17300;50.374;8.006;2023-02-28T09:30:26;1.65;;;1.55;;
30519;SDS011;17300;50.374;8.006;2023-02-28T09:32:53;2.50;;;2.30;;
30519;SDS011;17300;50.374;8.006;2023-02-28T09:35:21;1.67;;;1.58;;
30519;SDS011;17300;50.374;8.006;2023-02-28T09:37:49;1.80;;;1.70;;
30519;SDS011;17300;50.374;8.006;2023-02-28T09:40:17;1.60;;;1.50;;
30519;SDS011;17300;50.374;8.006;2023-02-28T09:42:45;1.70;;;1.60;;
30519;SDS011;17300;50.374;8.006;2023-02-28T09:45:16;1.50;;;1.40;;
30519;SDS011;17300;50.374;8.006;2023-02-28T09:47:48;1.50;;;1.40;;
30519;SDS011;17300;50.374;8.006;2023-02-28T09:50:20;1.60;;;1.50;;
30519;SDS011;17300;50.374;8.006;2023-02-28T09:52:55;1.50;;;1.40;;
30519;SDS011;17300;50.374;8.006;2023-02-28T09:55:25;1.60;;;1.50;;
30519;SDS011;17300;50.374;8.006;2023-02-28T09:57:58;1.40;;;1.30;;
30519;SDS011;17300;50.374;8.006;2023-02-28T10:00:27;1.65;;;1.55;;
30519;SDS011;17300;50.374;8.006;2023-02-28T10:03:06;1.50;;;1.40;;
30519;SDS011;17300;50.374;8.006;2023-02-28T10:05:47;1.42;;;1.33;;
30519;SDS011;17300;50.374;8.006;2023-02-28T10:08:19;1.63;;;1.40;;
30519;SDS011;17300;50.374;8.006;2023-02-28T10:10:50;2.00;;;1.60;;
30519;SDS011;17300;50.374;8.006;2023-02-28T10:13:22;2.10;;;1.70;;
30519;SDS011;17300;50.374;8.006;2023-02-28T10:15:54;1.70;;;1.60;;
30519;SDS011;17300;50.374;8.006;2023-02-28T10:18:25;1.60;;;1.50;;
30519;SDS011;17300;50.374;8.006;2023-02-28T10:20:57;1.73;;;1.63;;
30519;SDS011;17300;50.374;8.006;2023-02-28T10:23:26;1.63;;;1.52;;
30519;SDS011;17300;50.374;8.006;2023-02-28T10:25:59;1.40;;;1.30;;
30519;SDS011;17300;50.374;8.006;2023-02-28T10:28:28;1.88;;;1.77;;
30519;SDS011;17300;50.374;8.006;2023-02-28T10:30:56;2.08;;;1.80;;
30519;SDS011;17300;50.374;8.006;2023-02-28T10:33:25;1.50;;;1.40;;
30519;SDS011;17300;50.374;8.006;2023-02-28T10:35:54;2.33;;;1.50;;
30519;SDS011;17300;50.374;8.006;2023-02-28T10:38:24;1.73;;;1.63;;
30519;SDS011;17300;50.374;8.006;2023-02-28T10:40:52;1.55;;;1.45;;
30519;SDS011;17300;50.374;8.006;2023-02-28T10:43:30;2.10;;;1.90;;
30519;SDS011;17300;50.374;8.006;2023-02-28T10:46:01;1.67;;;1.58;;
30519;SDS011;17300;50.374;8.006;2023-02-28T10:48:32;1.60;;;1.50;;
30519;SDS011;17300;50.374;8.006;2023-02-28T10:51:01;1.70;;;1.60;;
30519;SDS011;17300;50.374;8.006;2023-02-28T10:53:33;1.90;;;1.80;;
30519;SDS011;17300;50.374;8.006;2023-02-28T10:56:04;1.70;;;1.60;;
30519;SDS011;17300;50.374;8.006;2023-02-28T10:58:42;1.88;;;1.70;;
30519;SDS011;17300;50.374;8.006;2023-02-28T11:01:14;1.83;;;1.73;;
30519;SDS011;17300;50.374;8.006;2023-02-28T11:03:42;1.83;;;1.73;;
30519;SDS011;17300;50.374;8.006;2023-02-28T11:06:14;1.90;;;1.63;;
30519;SDS011;17300;50.374;8.006;2023-02-28T11:08:44;1.70;;;1.60;;
30519;SDS011;17300;50.374;8.006;2023-02-28T11:11:13;1.65;;;1.55;;
30519;SDS011;17300;50.374;8.006;2023-02-28T11:13:41;1.63;;;1.52;;
30519;SDS011;17300;50.374;8.006;2023-02-28T11:16:10;1.88;;;1.75;;
30519;SDS011;17300;50.374;8.006;2023-02-28T11:18:40;1.98;;;1.80;;
30519;SDS011;17300;50.374;8.006;2023-02-28T11:21:16;1.80;;;1.70;;
30519;SDS011;17300;50.374;8.006;2023-02-28T11:23:46;2.03;;;1.87;;
30519;SDS011;17300;50.374;8.006;2023-02-28T11:26:16;1.80;;;1.70;;
30519;SDS011;17300;50.374;8.006;2023-02-28T11:29:03;1.80;;;1.70;;
30519;SDS011;17300;50.374;8.006;2023-02-28T11:31:36;1.73;;;1.63;;
30519;SDS011;17300;50.374;8.006;2023-02-28T11:34:08;1.70;;;1.60;;
30519;SDS011;17300;50.374;8.006;2023-02-28T11:36:51;2.00;;;1.70;;
30519;SDS011;17300;50.374;8.006;2023-02-28T11:39:19;1.80;;;1.70;;
30519;SDS011;17300;50.374;8.006;2023-02-28T11:41:54;1.83;;;1.73;;
30519;SDS011;17300;50.374;8.006;2023-02-28T11:44:38;1.60;;;1.50;;
30519;SDS011;17300;50.374;8.006;2023-02-28T11:47:17;1.70;;;1.60;;
30519;SDS011;17300;50.374;8.006;2023-02-28T11:49:50;2.03;;;1.80;;
30519;SDS011;17300;50.374;8.006;2023-02-28T11:52:33;1.77;;;1.67;;
30519;SDS011;17300;50.374;8.006;2023-02-28T11:55:07;2.00;;;1.80;;
30519;SDS011;17300;50.374;8.006;2023-02-28T11:57:47;1.53;;;1.43;;
30519;SDS011;17300;50.374;8.006;2023-02-28T12:00:29;1.60;;;1.50;;
30519;SDS011;17300;50.374;8.006;2023-02-28T12:03:09;2.63;;;1.87;;
30519;SDS011;17300;50.374;8.006;2023-02-28T12:05:45;1.70;;;1.57;;
30519;SDS011;17300;50.374;8.006;2023-02-28T12:08:23;2.17;;;1.60;;
30519;SDS011;17300;50.374;8.006;2023-02-28T12:11:03;1.70;;;1.60;;
30519;SDS011;17300;50.374;8.006;2023-02-28T12:13:37;1.80;;;1.70;;
30519;SDS011;17300;50.374;8.006;2023-02-28T12:19:06;1.70;;;1.60;;
30519;SDS011;17300;50.374;8.006;2023-02-28T12:21:48;1.90;;;1.80;;
30519;SDS011;17300;50.374;8.006;2023-02-28T12:24:41;1.87;;;1.77;;
30519;SDS011;17300;50.374;8.006;2023-02-28T12:27:17;2.10;;;1.60;;
30519;SDS011;17300;50.374;8.006;2023-02-28T12:29:47;2.30;;;2.10;;
30519;SDS011;17300;50.374;8.006;2023-02-28T12:32:18;1.90;;;1.80;;
30519;SDS011;17300;50.374;8.006;2023-02-28T12:34:49;2.70;;;2.20;;
30519;SDS011;17300;50.374;8.006;2023-02-28T12:37:21;1.90;;;1.80;;
30519;SDS011;17300;50.374;8.006;2023-02-28T12:39:57;1.97;;;1.87;;
30519;SDS011;17300;50.374;8.006;2023-02-28T12:42:31;1.80;;;1.70;;
30519;SDS011;17300;50.374;8.006;2023-02-28T12:45:04;1.83;;;1.73;;
30519;SDS011;17300;50.374;8.006;2023-02-28T12:47:34;2.30;;;1.80;;
30519;SDS011;17300;50.374;8.006;2023-02-28T12:50:02;2.00;;;1.90;;
30519;SDS011;17300;50.374;8.006;2023-02-28T12:52:31;2.07;;;1.90;;
30519;SDS011;17300;50.374;8.006;2023-02-28T12:55:05;2.00;;;1.80;;
30519;SDS011;17300;50.374;8.006;2023-02-28T12:57:38;2.53;;;2.10;;
30519;SDS011;17300;50.374;8.006;2023-02-28T13:00:14;2.10;;;1.90;;
30519;SDS011;17300;50.374;8.006;2023-02-28T13:02:49;2.10;;;2.00;;
30519;SDS011;17300;50.374;8.006;2023-02-28T13:05:57;2.57;;;2.00;;
30519;SDS011;17300;50.374;8.006;2023-02-28T13:08:47;2.20;;;2.00;;
30519;SDS011;17300;50.374;8.006;2023-02-28T13:11:39;1.60;;;1.50;;
30519;SDS011;17300;50.374;8.006;2023-02-28T13:14:16;1.87;;;1.77;;
30519;SDS011;17300;50.374;8.006;2023-02-28T13:16:56;2.33;;;2.00;;
30519;SDS011;17300;50.374;8.006;2023-02-28T13:19:26;2.50;;;2.30;;
30519;SDS011;17300;50.374;8.006;2023-02-28T13:21:55;2.50;;;2.10;;
30519;SDS011;17300;50.374;8.006;2023-02-28T13:24:37;2.40;;;2.20;;
30519;SDS011;17300;50.374;8.006;2023-02-28T13:33:23;2.70;;;2.23;;
30519;SDS011;17300;50.374;8.006;2023-02-28T13:36:00;2.13;;;1.97;;
30519;SDS011;17300;50.374;8.006;2023-02-28T13:38:35;2.50;;;2.30;;
30519;SDS011;17300;50.374;8.006;2023-02-28T13:44:10;1.90;;;1.70;;
30519;SDS011;17300;50.374;8.006;2023-02-28T13:49:43;2.20;;;2.00;;
30519;SDS011;17300;50.374;8.006;2023-02-28T13:52:12;2.63;;;2.43;;
30519;SDS011;17300;50.374;8.006;2023-02-28T13:54:50;2.30;;;2.10;;
30519;SDS011;17300;50.374;8.006;2023-02-28T13:57:25;2.40;;;2.20;;
30519;SDS011;17300;50.374;8.006;2023-02-28T14:00:13;3.80;;;2.20;;
30519;SDS011;17300;50.374;8.006;2023-02-28T14:02:52;2.10;;;1.90;;
30519;SDS011;17300;50.374;8.006;2023-02-28T14:05:40;2.30;;;2.10;;
30519;SDS011;17300;50.374;8.006;2023-02-28T14:08:10;2.00;;;1.90;;
30519;SDS011;17300;50.374;8.006;2023-02-28T14:10:42;2.53;;;2.33;;
30519;SDS011;17300;50.374;8.006;2023-02-28T14:13:13;2.10;;;2.00;;
30519;SDS011;17300;50.374;8.006;2023-02-28T14:15:57;2.40;;;2.20;;
30519;SDS011;17300;50.374;8.006;2023-02-28T14:18:27;2.47;;;2.27;;
30519;SDS011;17300;50.374;8.006;2023-02-28T14:21:08;2.60;;;2.40;;
30519;SDS011;17300;50.374;8.006;2023-02-28T14:26:49;4.57;;;2.07;;
30519;SDS011;17300;50.374;8.006;2023-02-28T14:29:30;2.40;;;2.20;;
30519;SDS011;17300;50.374;8.006;2023-02-28T14:32:13;2.30;;;2.10;;
30519;SDS011;17300;50.374;8.006;2023-02-28T14:34:49;1.83;;;1.73;;
30519;SDS011;17300;50.374;8.006;2023-02-28T14:37:20;2.43;;;2.10;;
30519;SDS011;17300;50.374;8.006;2023-02-28T14:39:53;2.50;;;2.30;;
30519;SDS011;17300;50.374;8.006;2023-02-28T14:42:26;2.30;;;2.10;;
30519;SDS011;17300;50.374;8.006;2023-02-28T14:44:54;2.47;;;1.93;;
30519;SDS011;17300;50.374;8.006;2023-02-28T14:47:24;2.17;;;2.00;;
30519;SDS011;17300;50.374;8.006;2023-02-28T14:49:53;2.20;;;2.00;;
30519;SDS011;17300;50.374;8.006;2023-02-28T14:52:21;2.17;;;1.97;;
30519;SDS011;17300;50.374;8.006;2023-02-28T14:54:51;2.23;;;2.03;;
30519;SDS011;17300;50.374;8.006;2023-02-28T14:57:23;2.73;;;1.90;;
30519;SDS011;17300;50.374;8.006;2023-02-28T14:59:58;2.80;;;2.13;;
30519;SDS011;17300;50.374;8.006;2023-02-28T15:02:30;3.13;;;2.20;;
30519;SDS011;17300;50.374;8.006;2023-02-28T15:05:00;2.57;;;2.10;;
30519;SDS011;17300;50.374;8.006;2023-02-28T15:07:42;1.90;;;1.80;;
30519;SDS011;17300;50.374;8.006;2023-02-28T15:10:19;2.17;;;1.97;;
30519;SDS011;17300;50.374;8.006;2023-02-28T15:12:49;2.40;;;2.20;;
30519;SDS011;17300;50.374;8.006;2023-02-28T15:15:19;2.30;;;2.10;;
30519;SDS011;17300;50.374;8.006;2023-02-28T15:17:49;2.33;;;2.13;;
30519;SDS011;17300;50.374;8.006;2023-02-28T15:20:19;2.30;;;2.10;;
30519;SDS011;17300;50.374;8.006;2023-02-28T15:22:47;2.00;;;1.90;;
30519;SDS011;17300;50.374;8.006;2023-02-28T15:25:18;2.47;;;2.03;;
30519;SDS011;17300;50.374;8.006;2023-02-28T15:27:47;2.47;;;2.20;;
30519;SDS011;17300;50.374;8.006;2023-02-28T15:30:17;2.53;;;2.33;;
30519;SDS011;17300;50.374;8.006;2023-02-28T15:35:39;2.20;;;2.00;;
30519;SDS011;17300;50.374;8.006;2023-02-28T15:38:13;2.20;;;2.00;;
30519;SDS011;17300;50.374;8.006;2023-02-28T15:40:43;2.47;;;2.13;;
30519;SDS011;17300;50.374;8.006;2023-02-28T15:43:14;3.70;;;2.20;;
30519;SDS011;17300;50.374;8.006;2023-02-28T15:45:44;3.40;;;2.13;;
30519;SDS011;17300;50.374;8.006;2023-02-28T15:48:14;2.27;;;2.07;;
30519;SDS011;17300;50.374;8.006;2023-02-28T15:50:46;2.33;;;2.13;;
30519;SDS011;17300;50.374;8.006;2023-02-28T15:53:15;2.43;;;2.10;;